Time;durP1;ratioP1;P1;durP2;ratioP2;P2;SDS_P1;SDS_P2;PMS_P1;PMS_P2;Temp;Humidity;BMP_temperature;BMP_pressure;BME280_temperature;BME280_humidity;BME280_pressure;Samples;Min_cycle;Max_cycle;Signal;HPM_P1;HPM_P2
2022/04/09 00:00:49;;;;;;;5.97;2.47;;;1.60;99.90;;;;;;6190041;23;20008;-94
2022/04/09 00:03:16;;;;;;;3.05;1.90;;;1.60;99.90;;;;;;6166787;23;20016;-93
2022/04/09 00:05:42;;;;;;;3.05;1.85;;;1.60;99.90;;;;;;6164727;23;20024;-94
2022/04/09 00:08:07;;;;;;;3.00;1.75;;;1.60;99.90;;;;;;6189337;23;20340;-93
2022/04/09 00:10:34;;;;;;;5.70;3.17;;;1.50;99.90;;;;;;6190163;23;20013;-93
2022/04/09 00:13:00;;;;;;;3.05;1.70;;;1.50;99.90;;;;;;6188995;23;20032;-94
2022/04/09 00:15:26;;;;;;;7.20;2.55;;;1.50;99.90;;;;;;6189250;23;20428;-93
2022/04/09 00:17:52;;;;;;;4.97;2.20;;;1.50;99.90;;;;;;6188762;23;20036;-93
2022/04/09 00:20:19;;;;;;;5.40;2.30;;;1.50;99.90;;;;;;6189572;23;20009;-92
2022/04/09 00:22:45;;;;;;;5.32;2.20;;;1.50;99.90;;;;;;6189043;23;20326;-93
2022/04/09 00:25:13;;;;;;;5.55;2.70;;;1.50;99.90;;;;;;6188462;23;20023;-92
2022/04/09 00:27:39;;;;;;;4.85;2.63;;;1.50;99.90;;;;;;6188921;23;20055;-93
2022/04/09 00:30:08;;;;;;;4.57;2.30;;;1.50;99.90;;;;;;6189114;23;20013;-92
2022/04/09 00:32:34;;;;;;;6.30;2.00;;;1.50;99.90;;;;;;6189295;23;19997;-93
2022/04/09 00:35:01;;;;;;;6.53;2.40;;;1.40;99.90;;;;;;6189206;23;20035;-94
2022/04/09 00:37:27;;;;;;;4.43;2.38;;;1.40;99.90;;;;;;6188948;23;20009;-93
2022/04/09 00:39:52;;;;;;;7.25;2.72;;;1.40;99.90;;;;;;6188888;23;20092;-93
2022/04/09 00:42:20;;;;;;;3.53;2.35;;;1.40;99.90;;;;;;6188790;23;20416;-93
2022/04/09 00:44:46;;;;;;;5.90;2.65;;;1.40;99.90;;;;;;6189330;23;20013;-94
2022/04/09 00:47:13;;;;;;;3.47;2.05;;;1.40;99.90;;;;;;6192574;23;20008;-93
2022/04/09 00:49:39;;;;;;;7.57;2.30;;;1.30;99.90;;;;;;6195549;23;20016;-93
2022/04/09 00:52:08;;;;;;;5.28;2.72;;;1.30;99.90;;;;;;6190423;23;20008;-93
2022/04/09 00:54:42;;;;;;;3.70;1.60;;;1.30;99.90;;;;;;6188713;23;20055;-94
2022/04/09 00:57:11;;;;;;;6.57;2.28;;;1.30;99.90;;;;;;6188649;23;20036;-93
2022/04/09 00:59:42;;;;;;;2.47;1.50;;;1.30;99.90;;;;;;6188588;23;20462;-94
2022/04/09 01:02:09;;;;;;;;;;;1.20;99.90;;;;;;6204139;23;20007;-93
2022/04/09 01:04:39;;;;;;;5.82;2.03;;;1.20;99.90;;;;;;6181383;23;19912;-93
2022/04/09 01:07:05;;;;;;;4.68;1.80;;;1.20;99.90;;;;;;6202262;23;20001;-93
2022/04/09 01:09:31;;;;;;;3.85;2.20;;;1.20;99.90;;;;;;6183501;23;20016;-93
2022/04/09 01:11:57;;;;;;;4.55;2.15;;;1.20;99.90;;;;;;6205307;23;20008;-93
2022/04/09 01:14:22;;;;;;;4.65;2.13;;;1.20;99.90;;;;;;6197261;23;20052;-94
2022/04/09 01:16:49;;;;;;;10.45;2.72;;;1.10;99.90;;;;;;6201501;23;20472;-94
2022/04/09 01:19:14;;;;;;;3.83;2.13;;;1.10;99.90;;;;;;6199830;23;20011;-94
2022/04/09 01:21:40;;;;;;;4.47;2.08;;;1.10;99.90;;;;;;6211728;23;20001;-93
2022/04/09 01:24:06;;;;;;;3.58;1.90;;;1.10;99.90;;;;;;6211481;23;19997;-94
2022/04/09 01:26:33;;;;;;;3.72;1.77;;;1.10;99.90;;;;;;6202026;23;20009;-94
2022/04/09 01:28:59;;;;;;;7.78;2.30;;;1.10;99.90;;;;;;6194461;23;20092;-93
2022/04/09 01:31:25;;;;;;;3.60;2.10;;;1.10;99.90;;;;;;6194949;23;20044;-94
2022/04/09 01:33:51;;;;;;;6.00;2.60;;;1.00;99.90;;;;;;6189249;23;20036;-94
2022/04/09 01:36:17;;;;;;;3.38;1.63;;;1.00;99.90;;;;;;6188167;23;20050;-93
2022/04/09 01:38:42;;;;;;;4.45;2.53;;;1.00;99.90;;;;;;6187604;23;20436;-94
2022/04/09 01:41:08;;;;;;;3.78;2.40;;;0.90;99.90;;;;;;6188084;23;20040;-94
2022/04/09 01:43:34;;;;;;;5.53;2.78;;;0.90;99.90;;;;;;6187293;23;20020;-94
2022/04/09 01:46:00;;;;;;;10.63;3.15;;;0.90;99.90;;;;;;6187721;23;20005;-95
2022/04/09 01:48:26;;;;;;;3.45;2.55;;;0.90;99.90;;;;;;6188375;23;20075;-94
2022/04/09 01:50:52;;;;;;;4.05;2.50;;;0.90;99.90;;;;;;6188018;23;20084;-94
2022/04/09 01:53:18;;;;;;;4.00;2.22;;;0.90;99.90;;;;;;6188530;23;20059;-94
2022/04/09 01:55:44;;;;;;;4.88;2.35;;;0.90;99.90;;;;;;6188604;23;20016;-94
2022/04/09 01:58:10;;;;;;;5.28;2.85;;;0.80;99.90;;;;;;6188388;23;20337;-94
2022/04/09 02:00:36;;;;;;;4.47;2.30;;;0.90;99.90;;;;;;6189249;23;20475;-94
2022/04/09 02:03:02;;;;;;;7.00;2.95;;;0.90;99.90;;;;;;6195858;23;20001;-93
2022/04/09 02:05:28;;;;;;;4.20;1.95;;;0.90;99.90;;;;;;6195390;23;20013;-93
2022/04/09 02:07:54;;;;;;;5.65;2.70;;;0.90;99.90;;;;;;6195144;23;20001;-93
2022/04/09 02:10:20;;;;;;;4.88;2.80;;;1.00;99.90;;;;;;6191779;23;20009;-93
2022/04/09 02:12:46;;;;;;;6.00;2.78;;;1.00;99.90;;;;;;6191698;23;20008;-93
2022/04/09 02:15:15;;;;;;;9.52;2.90;;;1.00;99.90;;;;;;6191777;23;20029;-94
2022/04/09 02:17:42;;;;;;;4.47;2.97;;;1.00;99.90;;;;;;6194922;23;20012;-93
2022/04/09 02:20:11;;;;;;;5.80;2.47;;;0.90;99.90;;;;;;6192278;23;20016;-93
2022/04/09 02:22:42;;;;;;;6.03;2.83;;;0.90;99.90;;;;;;6191065;23;20005;-94
2022/04/09 02:25:11;;;;;;;6.47;2.95;;;0.90;99.90;;;;;;6191323;23;20009;-93
2022/04/09 02:27:37;;;;;;;5.43;2.92;;;0.80;99.90;;;;;;6191563;23;19998;-93
2022/04/09 02:30:04;;;;;;;5.00;2.38;;;0.80;99.90;;;;;;6191287;23;20036;-93
2022/04/09 02:32:30;;;;;;;5.55;2.88;;;0.70;99.90;;;;;;6191687;23;20009;-93
2022/04/09 02:34:56;;;;;;;6.75;2.88;;;0.70;99.90;;;;;;6192657;23;20065;-93
2022/04/09 02:37:23;;;;;;;5.93;3.10;;;0.70;99.90;;;;;;6186760;23;19997;-93
2022/04/09 02:39:49;;;;;;;4.60;2.70;;;0.70;99.90;;;;;;6186774;23;20005;-93
2022/04/09 02:42:14;;;;;;;6.00;2.47;;;0.70;99.90;;;;;;6186990;23;20032;-93
2022/04/09 02:44:43;;;;;;;5.57;3.10;;;0.60;99.90;;;;;;6187109;23;20021;-93
2022/04/09 02:47:09;;;;;;;5.40;2.88;;;0.60;99.90;;;;;;6187178;23;20009;-92
2022/04/09 02:49:35;;;;;;;7.80;3.20;;;0.60;99.90;;;;;;6186777;23;20047;-92
2022/04/09 02:52:01;;;;;;;4.03;2.50;;;0.60;99.90;;;;;;6186813;23;20425;-93
2022/04/09 02:54:27;;;;;;;4.97;2.88;;;0.50;99.90;;;;;;6187050;23;20387;-92
2022/04/09 02:56:53;;;;;;;3.58;2.33;;;0.50;99.90;;;;;;6187035;23;20448;-93
2022/04/09 02:59:19;;;;;;;5.03;2.40;;;0.50;99.90;;;;;;6187183;23;20051;-92
2022/04/09 03:01:46;;;;;;;5.80;3.30;;;0.50;99.90;;;;;;6186522;23;20001;-92
2022/04/09 03:04:13;;;;;;;7.40;3.40;;;0.50;99.90;;;;;;6186526;23;20009;-92
2022/04/09 03:06:39;;;;;;;10.27;3.60;;;0.40;99.90;;;;;;6186757;23;20063;-93
2022/04/09 03:09:05;;;;;;;7.75;3.30;;;0.40;99.90;;;;;;6186717;23;20009;-92
2022/04/09 03:11:31;;;;;;;5.20;3.50;;;0.30;99.90;;;;;;6186881;23;20099;-94
2022/04/09 03:13:57;;;;;;;7.13;3.08;;;0.30;99.90;;;;;;6186619;23;20001;-92
2022/04/09 03:16:22;;;;;;;4.80;2.85;;;0.30;99.90;;;;;;6186487;23;20405;-92
2022/04/09 03:18:48;;;;;;;9.35;2.58;;;0.30;99.90;;;;;;6186354;23;20020;-92
2022/04/09 03:21:14;;;;;;;6.57;2.35;;;0.30;99.90;;;;;;6186692;23;20024;-93
2022/04/09 03:23:41;;;;;;;11.30;2.50;;;0.40;99.90;;;;;;6186497;23;20012;-92
2022/04/09 03:26:07;;;;;;;4.60;2.75;;;0.50;99.90;;;;;;6187255;23;20062;-94
2022/04/09 03:28:33;;;;;;;5.18;2.38;;;0.60;99.90;;;;;;6188103;23;20061;-92
2022/04/09 03:30:59;;;;;;;4.28;1.90;;;0.70;99.90;;;;;;6188189;23;20424;-95
2022/04/09 03:33:26;;;;;;;7.07;2.60;;;0.90;99.90;;;;;;6188451;23;20347;-92
2022/04/09 03:35:53;;;;;;;7.93;2.53;;;1.00;99.90;;;;;;6188679;23;20009;-93
2022/04/09 03:38:19;;;;;;;6.43;2.58;;;1.10;99.90;;;;;;6188282;23;20009;-93
2022/04/09 03:40:45;;;;;;;4.78;2.00;;;1.10;99.90;;;;;;6188593;23;20020;-93
2022/04/09 03:43:11;;;;;;;3.83;2.35;;;1.10;99.90;;;;;;6191194;23;20001;-92
2022/04/09 03:45:36;;;;;;;7.60;2.80;;;1.10;99.90;;;;;;6194999;23;20023;-92
2022/04/09 03:48:02;;;;;;;6.95;2.58;;;1.10;99.90;;;;;;6196760;23;20008;-91
2022/04/09 03:50:28;;;;;;;6.68;2.28;;;1.10;99.90;;;;;;6165135;23;20013;-92
2022/04/09 03:52:54;;;;;;;10.88;2.58;;;1.10;99.90;;;;;;6163525;23;20013;-92
2022/04/09 03:55:20;;;;;;;6.65;2.20;;;1.10;99.90;;;;;;6163348;23;20043;-93
2022/04/09 03:57:46;;;;;;;8.88;2.67;;;1.10;99.90;;;;;;6162899;23;20011;-93
2022/04/09 04:00:14;;;;;;;6.05;2.22;;;1.10;99.90;;;;;;6163431;23;20006;-93
2022/04/09 04:02:40;;;;;;;11.90;2.67;;;1.10;99.90;;;;;;6163429;23;19997;-93
2022/04/09 04:05:08;;;;;;;12.98;2.70;;;1.10;99.90;;;;;;6163261;23;20037;-92
2022/04/09 04:07:35;;;;;;;12.00;3.13;;;1.10;99.90;;;;;;6163058;23;20012;-94
2022/04/09 04:10:06;;;;;;;8.77;1.98;;;1.10;99.90;;;;;;6162873;23;20040;-93
2022/04/09 04:12:32;;;;;;;10.00;2.80;;;1.10;99.90;;;;;;6163506;23;20012;-93
2022/04/09 04:14:58;;;;;;;10.40;2.33;;;1.10;99.90;;;;;;6164603;23;20005;-93
2022/04/09 04:17:23;;;;;;;7.30;1.88;;;1.20;99.90;;;;;;6164091;23;20345;-92
2022/04/09 04:19:49;;;;;;;14.32;2.10;;;1.20;99.90;;;;;;6169229;23;20087;-93
2022/04/09 04:22:15;;;;;;;8.98;2.13;;;1.20;99.90;;;;;;6174906;23;20016;-93
2022/04/09 04:24:41;;;;;;;15.00;1.90;;;1.20;99.90;;;;;;6179270;23;20005;-92
2022/04/09 04:27:07;;;;;;;8.80;2.17;;;1.20;99.90;;;;;;6174414;23;20009;-95
2022/04/09 04:29:34;;;;;;;4.60;1.65;;;1.30;99.90;;;;;;6163471;23;20005;-93
2022/04/09 04:32:00;;;;;;;20.13;2.45;;;1.30;99.90;;;;;;6163525;23;20079;-92
2022/04/09 04:34:26;;;;;;;5.90;1.90;;;1.30;99.90;;;;;;6162764;23;20008;-93
2022/04/09 04:36:51;;;;;;;4.30;1.55;;;1.30;99.90;;;;;;6162610;23;20005;-93
2022/04/09 04:39:17;;;;;;;6.88;2.05;;;1.30;99.90;;;;;;6162670;23;20309;-93
2022/04/09 04:41:43;;;;;;;6.97;2.28;;;1.30;99.90;;;;;;6162945;23;20009;-92
2022/04/09 04:44:10;;;;;;;10.98;2.30;;;1.30;99.90;;;;;;6162803;23;20376;-93
2022/04/09 04:46:36;;;;;;;15.48;2.80;;;1.30;99.90;;;;;;6163126;23;20025;-93
2022/04/09 04:49:03;;;;;;;10.68;2.05;;;1.30;99.90;;;;;;6170161;23;20013;-93
2022/04/09 04:51:29;;;;;;;9.90;2.38;;;1.30;99.90;;;;;;6187339;23;20087;-93
2022/04/09 04:53:55;;;;;;;7.45;2.33;;;1.30;99.90;;;;;;6187653;23;20005;-93
2022/04/09 04:56:23;;;;;;;8.05;2.83;;;1.30;99.90;;;;;;6187501;23;20088;-93
2022/04/09 04:58:49;;;;;;;6.43;2.10;;;1.40;99.90;;;;;;6187811;23;20002;-91
2022/04/09 05:01:15;;;;;;;8.98;2.75;;;1.30;99.90;;;;;;6187892;23;20017;-94
2022/04/09 05:03:41;;;;;;;9.18;2.60;;;1.40;99.90;;;;;;6188049;23;20492;-94
2022/04/09 05:06:06;;;;;;;5.40;2.67;;;1.40;99.90;;;;;;6187739;23;20009;-93
2022/04/09 05:08:32;;;;;;;9.98;2.70;;;1.40;99.90;;;;;;6187754;23;20464;-93
2022/04/09 05:10:58;;;;;;;11.65;2.88;;;1.50;99.90;;;;;;6187723;23;20013;-93
2022/04/09 05:13:23;;;;;;;9.77;2.40;;;1.50;99.90;;;;;;6188318;23;20032;-93
2022/04/09 05:15:50;;;;;;;16.67;2.38;;;1.50;99.90;;;;;;6190239;23;20084;-92
2022/04/09 05:18:15;;;;;;;7.93;2.42;;;1.50;99.90;;;;;;6168712;23;20012;-92
2022/04/09 05:20:41;;;;;;;10.70;2.03;;;1.50;99.90;;;;;;6190120;23;20001;-93
2022/04/09 05:23:07;;;;;;;14.30;2.55;;;1.50;99.90;;;;;;6188645;23;20005;-93
2022/04/09 05:25:33;;;;;;;7.95;2.00;;;1.50;99.90;;;;;;6187400;23;20021;-93
2022/04/09 05:28:08;;;;;;;8.93;2.78;;;1.50;99.90;;;;;;6187822;23;20459;-92
2022/04/09 05:30:34;;;;;;;4.65;2.13;;;1.50;99.90;;;;;;6188236;23;20020;-92
2022/04/09 05:33:00;;;;;;;7.65;2.20;;;1.50;99.90;;;;;;6187742;23;20008;-92
2022/04/09 05:35:25;;;;;;;4.55;2.40;;;1.50;99.90;;;;;;6188438;23;20009;-92
2022/04/09 05:37:51;;;;;;;11.40;3.42;;;1.50;99.90;;;;;;6187932;23;20088;-92
2022/04/09 05:40:18;;;;;;;12.95;3.85;;;1.50;99.90;;;;;;6188508;23;20009;-92
2022/04/09 05:42:43;;;;;;;9.73;2.85;;;1.50;99.90;;;;;;6189297;23;20020;-92
2022/04/09 05:45:10;;;;;;;7.07;2.50;;;1.50;99.90;;;;;;6188476;23;20016;-92
2022/04/09 05:47:44;;;;;;;13.73;4.43;;;1.50;99.90;;;;;;6188384;23;20037;-94
2022/04/09 05:50:10;;;;;;;15.55;3.92;;;1.50;99.90;;;;;;6188358;23;20071;-94
2022/04/09 05:52:36;;;;;;;10.32;3.60;;;1.50;99.90;;;;;;6188470;23;20009;-93
2022/04/09 05:55:06;;;;;;;13.48;5.55;;;1.50;99.90;;;;;;6189704;23;20001;-93
2022/04/09 05:57:32;;;;;;;12.55;3.63;;;1.50;99.90;;;;;;6189272;23;20048;-94
2022/04/09 05:59:58;;;;;;;9.85;4.20;;;1.50;99.90;;;;;;6190228;23;20009;-93
2022/04/09 06:02:24;;;;;;;12.57;4.03;;;1.50;99.90;;;;;;6189603;23;20075;-93
2022/04/09 06:04:49;;;;;;;12.48;3.67;;;1.50;99.90;;;;;;6189772;23;20012;-93
2022/04/09 06:07:15;;;;;;;9.27;3.45;;;1.50;99.90;;;;;;6188688;23;20047;-93
2022/04/09 06:09:41;;;;;;;11.57;3.83;;;1.50;99.90;;;;;;6195584;23;20016;-93
2022/04/09 06:12:08;;;;;;;12.45;3.05;;;1.60;99.90;;;;;;6202805;23;20065;-93
2022/04/09 06:14:35;;;;;;;10.50;3.65;;;1.60;99.90;;;;;;6210974;23;20024;-93
2022/04/09 06:17:01;;;;;;;14.10;3.10;;;1.70;99.90;;;;;;6210330;23;20001;-93
2022/04/09 06:19:27;;;;;;;7.28;2.90;;;1.70;99.90;;;;;;6210442;23;20052;-93
2022/04/09 06:21:53;;;;;;;10.23;2.88;;;1.80;99.90;;;;;;6210049;23;20016;-94
2022/04/09 06:24:19;;;;;;;9.63;2.50;;;1.80;99.90;;;;;;6209975;23;20001;-93
2022/04/09 06:26:45;;;;;;;11.27;2.75;;;1.90;99.90;;;;;;6210528;23;20035;-94
2022/04/09 06:29:11;;;;;;;8.68;2.38;;;2.00;99.90;;;;;;6202678;23;20047;-94
2022/04/09 06:31:36;;;;;;;10.48;2.22;;;2.00;99.90;;;;;;6195812;23;20024;-94
2022/04/09 06:34:02;;;;;;;11.02;2.80;;;2.10;99.90;;;;;;6193871;23;20009;-94
2022/04/09 06:36:28;;;;;;;8.10;2.53;;;2.20;99.90;;;;;;6199894;23;20001;-93
2022/04/09 06:38:54;;;;;;;10.63;2.58;;;2.20;99.90;;;;;;6205905;23;20024;-94
2022/04/09 06:41:20;;;;;;;10.48;2.38;;;2.30;99.90;;;;;;6200273;23;20016;-94
2022/04/09 06:43:47;;;;;;;13.75;2.75;;;2.30;99.90;;;;;;6200344;23;20005;-94
2022/04/09 06:46:13;;;;;;;13.05;2.63;;;2.40;99.90;;;;;;6204481;23;20009;-94
2022/04/09 06:48:39;;;;;;;15.80;3.58;;;2.40;99.90;;;;;;6201043;23;20094;-95
2022/04/09 06:51:05;;;;;;;8.30;2.92;;;2.40;99.90;;;;;;6201372;23;20017;-94
2022/04/09 06:53:30;;;;;;;8.50;3.17;;;2.50;99.90;;;;;;6189243;23;20005;-94
2022/04/09 06:55:56;;;;;;;16.42;3.53;;;2.50;99.90;;;;;;6191553;23;20035;-94
2022/04/09 06:58:22;;;;;;;8.98;2.20;;;2.50;99.90;;;;;;6188986;23;20014;-94
2022/04/09 07:00:48;;;;;;;9.48;2.85;;;2.60;99.90;;;;;;6188360;23;20005;-94
2022/04/09 07:03:14;;;;;;;10.93;3.05;;;2.60;99.90;;;;;;6187952;23;20035;-94
2022/04/09 07:05:42;;;;;;;16.02;3.47;;;2.60;99.90;;;;;;6166296;23;20017;-94
2022/04/09 07:08:09;;;;;;;8.73;2.38;;;2.70;99.90;;;;;;6192193;23;20001;-94
2022/04/09 07:10:39;;;;;;;11.80;3.25;;;2.70;99.90;;;;;;6203203;23;20001;-93
2022/04/09 07:13:06;;;;;;;18.00;3.13;;;2.80;99.90;;;;;;6196266;23;20013;-93
2022/04/09 07:15:35;;;;;;;15.07;3.72;;;2.80;99.90;;;;;;6196453;23;20027;-93
2022/04/09 07:18:01;;;;;;;15.95;2.90;;;2.90;99.90;;;;;;6171214;23;20005;-93
2022/04/09 07:20:27;;;;;;;17.33;2.92;;;3.00;99.90;;;;;;6195547;23;20009;-94
2022/04/09 07:22:52;;;;;;;14.48;2.78;;;3.00;99.90;;;;;;6187891;23;20051;-94
2022/04/09 07:25:18;;;;;;;9.30;2.47;;;3.00;99.90;;;;;;6188481;23;20100;-94
2022/04/09 07:27:45;;;;;;;9.75;3.95;;;3.10;99.90;;;;;;6188242;23;20072;-93
2022/04/09 07:30:19;;;;;;;16.35;2.88;;;3.20;99.90;;;;;;6189088;23;20076;-93
2022/04/09 07:32:46;;;;;;;10.75;2.22;;;3.20;99.90;;;;;;6187804;23;20005;-94
2022/04/09 07:35:12;;;;;;;12.20;2.15;;;3.30;99.90;;;;;;6188008;23;20005;-94
2022/04/09 07:37:50;;;;;;;6.60;1.80;;;3.40;99.90;;;;;;6188969;23;20001;-94
2022/04/09 07:40:18;;;;;;;10.23;1.75;;;3.40;99.90;;;;;;6187109;23;20012;-93
2022/04/09 07:42:45;;;;;;;11.15;1.83;;;3.50;99.90;;;;;;6187120;23;20389;-95
2022/04/09 07:45:12;;;;;;;17.17;2.50;;;3.60;99.90;;;;;;6186591;23;20448;-93
2022/04/09 07:47:38;;;;;;;12.65;2.22;;;3.70;99.90;;;;;;6186544;23;20005;-93
2022/04/09 07:50:07;;;;;;;14.38;1.88;;;3.80;99.90;;;;;;6186653;23;20418;-93
2022/04/09 07:52:33;;;;;;;7.68;2.20;;;3.80;99.90;;;;;;6188627;23;20045;-94
2022/04/09 07:54:59;;;;;;;4.97;1.40;;;3.90;99.90;;;;;;6192946;23;20005;-93
2022/04/09 07:57:26;;;;;;;10.70;2.63;;;3.90;99.90;;;;;;6192660;23;20032;-93
2022/04/09 07:59:55;;;;;;;12.95;2.55;;;4.00;99.90;;;;;;6187927;23;20004;-93
2022/04/09 08:02:22;;;;;;;11.27;1.48;;;4.10;99.90;;;;;;6187477;23;20012;-94
2022/04/09 08:04:47;;;;;;;14.02;2.13;;;4.10;99.90;;;;;;6185839;23;20041;-94
2022/04/09 08:07:13;;;;;;;9.85;1.77;;;4.20;99.90;;;;;;6186601;23;20002;-94
2022/04/09 08:09:39;;;;;;;10.55;1.80;;;4.30;99.90;;;;;;6187319;23;20009;-93
2022/04/09 08:12:04;;;;;;;12.60;2.15;;;4.30;99.90;;;;;;6187396;23;20009;-93
2022/04/09 08:14:32;;;;;;;5.53;2.03;;;4.40;99.90;;;;;;6187585;23;20005;-93
2022/04/09 08:16:59;;;;;;;10.20;1.75;;;4.40;99.90;;;;;;6188752;23;20024;-94
2022/04/09 08:19:25;;;;;;;7.93;2.83;;;4.40;99.90;;;;;;6188720;23;20004;-93
2022/04/09 08:21:55;;;;;;;9.32;2.03;;;4.50;99.90;;;;;;6190641;23;20012;-93
2022/04/09 08:24:20;;;;;;;6.30;1.85;;;4.60;99.90;;;;;;6191205;23;20013;-92
2022/04/09 08:26:46;;;;;;;9.88;2.05;;;4.60;99.90;;;;;;6187719;23;20009;-94
2022/04/09 08:29:16;;;;;;;10.93;2.00;;;4.70;99.90;;;;;;6187900;23;20039;-93
2022/04/09 08:31:43;;;;;;;12.68;2.38;;;4.80;99.90;;;;;;6188033;23;20056;-94
2022/04/09 08:34:09;;;;;;;4.85;1.73;;;4.80;99.90;;;;;;6187510;23;20005;-94
2022/04/09 08:36:35;;;;;;;7.85;1.73;;;4.90;99.90;;;;;;6187980;23;20031;-94
2022/04/09 08:39:01;;;;;;;5.50;1.70;;;5.00;99.90;;;;;;6187782;23;20005;-95
2022/04/09 08:41:27;;;;;;;12.45;2.20;;;5.00;99.90;;;;;;6188947;23;20012;-95
2022/04/09 08:43:53;;;;;;;6.88;2.00;;;5.10;99.90;;;;;;6187393;23;20083;-94
2022/04/09 08:46:22;;;;;;;5.72;1.95;;;5.20;99.90;;;;;;6187317;23;20025;-94
2022/04/09 08:48:50;;;;;;;11.05;1.80;;;5.20;99.90;;;;;;6187705;23;20083;-94
2022/04/09 08:51:16;;;;;;;9.05;2.80;;;5.30;99.90;;;;;;6188269;23;20040;-94
2022/04/09 08:53:43;;;;;;;8.00;1.83;;;5.40;99.90;;;;;;6188605;23;20088;-95
2022/04/09 08:56:11;;;;;;;8.38;2.20;;;5.50;99.90;;;;;;6188365;23;20005;-94
2022/04/09 08:58:37;;;;;;;10.60;2.10;;;5.60;99.90;;;;;;6192284;23;20009;-93
2022/04/09 09:01:02;;;;;;;9.35;2.53;;;5.60;99.90;;;;;;6189650;23;20005;-95
2022/04/09 09:03:28;;;;;;;9.57;2.22;;;5.70;99.90;;;;;;6188044;23;20005;-94
2022/04/09 09:05:54;;;;;;;7.28;2.35;;;5.80;99.90;;;;;;6163319;23;20075;-95
2022/04/09 09:08:38;;;;;;;11.52;1.77;;;5.90;99.90;;;;;;6187529;23;20041;-96
2022/04/09 09:11:03;;;;;;;8.50;1.85;;;6.00;99.90;;;;;;6187015;23;20008;-95
2022/04/09 09:13:29;;;;;;;9.10;2.08;;;6.10;99.90;;;;;;6186852;23;20345;-94
2022/04/09 09:15:55;;;;;;;12.15;3.05;;;6.10;99.90;;;;;;6187397;23;20079;-95
2022/04/09 09:18:23;;;;;;;8.32;2.00;;;6.20;99.90;;;;;;6186731;23;20013;-95
2022/04/09 09:20:58;;;;;;;10.32;2.00;;;6.20;99.90;;;;;;6187398;23;20005;-95
2022/04/09 09:23:26;;;;;;;12.80;1.90;;;6.30;99.90;;;;;;6186641;23;20063;-95
2022/04/09 09:25:54;;;;;;;11.88;1.70;;;6.40;99.90;;;;;;6186254;23;20021;-94
2022/04/09 09:28:31;;;;;;;7.22;1.67;;;6.50;99.90;;;;;;6187001;23;20005;-94
2022/04/09 09:30:58;;;;;;;9.02;1.83;;;6.70;99.90;;;;;;6186667;23;20013;-95
2022/04/09 09:33:24;;;;;;;9.60;2.38;;;6.80;99.90;;;;;;6186663;23;20012;-94
2022/04/09 09:35:59;;;;;;;5.18;2.08;;;7.00;99.90;;;;;;6187044;23;20019;-94
2022/04/09 09:38:27;;;;;;;6.55;1.75;;;7.10;99.90;;;;;;6186689;23;20051;-95
2022/04/09 09:40:54;;;;;;;9.07;1.55;;;7.30;99.90;;;;;;6188436;23;20005;-94
2022/04/09 09:43:21;;;;;;;13.32;1.52;;;7.30;99.90;;;;;;6190893;23;20005;-93
2022/04/09 09:45:50;;;;;;;6.70;1.70;;;7.40;99.20;;;;;;6197317;23;20080;-96
2022/04/09 09:48:24;;;;;;;3.97;0.85;;;7.40;97.70;;;;;;6193211;23;20337;-95
2022/04/09 09:50:51;;;;;;;6.13;1.35;;;7.40;96.80;;;;;;6188094;23;20024;-95
2022/04/09 09:53:36;;;;;;;7.35;1.40;;;7.50;95.20;;;;;;6194453;23;20044;-95
2022/04/09 09:56:03;;;;;;;3.60;1.10;;;7.60;94.70;;;;;;6199410;23;20016;-96
2022/04/09 09:58:31;;;;;;;5.93;1.02;;;7.90;93.60;;;;;;6189465;23;20036;-96
2022/04/09 10:00:58;;;;;;;5.72;1.50;;;8.00;92.90;;;;;;6190281;23;20056;-95
2022/04/09 10:03:30;;;;;;;5.82;1.80;;;8.00;91.50;;;;;;6193502;23;20087;-96
2022/04/09 10:05:57;;;;;;;3.67;1.50;;;8.20;91.40;;;;;;6198759;23;20024;-95
2022/04/09 10:08:23;;;;;;;8.55;1.40;;;8.30;91.20;;;;;;6198915;23;20080;-95
2022/04/09 10:11:02;;;;;;;8.82;1.58;;;8.50;91.00;;;;;;6203190;23;20055;-96
2022/04/09 10:13:32;;;;;;;;;;;8.50;90.30;;;;;;6206949;23;20040;-96
2022/04/09 10:16:01;;;;;;;7.47;1.20;;;8.60;89.30;;;;;;6206692;23;19888;-96
2022/04/09 10:18:42;;;;;;;6.20;1.70;;;8.60;89.30;;;;;;6158154;23;20013;-96
2022/04/09 10:21:39;;;;;;;3.97;1.00;;;8.70;87.80;;;;;;6208500;23;20007;-96
2022/04/09 10:24:12;;;;;;;4.75;1.10;;;8.90;84.30;;;;;;6200396;23;20015;-96
2022/04/09 10:26:53;;;;;;;7.78;1.00;;;8.90;83.00;;;;;;6201265;23;20074;-95
2022/04/09 10:29:43;;;;;;;2.33;0.90;;;9.00;81.90;;;;;;6207464;23;20009;-96
2022/04/09 10:32:14;;;;;;;3.80;1.23;;;9.10;80.50;;;;;;6206756;23;20001;-95
2022/04/09 10:35:23;;;;;;;3.45;1.00;;;9.30;79.00;;;;;;6202513;23;20128;-95
2022/04/09 10:38:18;;;;;;;2.47;0.88;;;9.40;77.00;;;;;;6205809;23;20005;-95
2022/04/09 10:40:55;;;;;;;5.53;1.17;;;9.50;76.90;;;;;;6204693;23;19998;-95
2022/04/09 10:43:39;;;;;;;4.93;1.17;;;9.60;76.80;;;;;;6206842;23;20013;-95
2022/04/09 10:46:05;;;;;;;4.40;1.00;;;9.80;76.90;;;;;;6207063;23;20017;-95
2022/04/09 10:48:47;;;;;;;1.80;0.80;;;10.10;76.70;;;;;;6208082;23;19989;-95
2022/04/09 10:51:42;;;;;;;2.42;0.80;;;10.20;75.20;;;;;;6208721;23;20008;-94
2022/04/09 10:54:20;;;;;;;2.75;0.90;;;10.30;74.70;;;;;;6178258;23;20032;-95
2022/04/09 10:56:50;;;;;;;5.72;1.00;;;10.40;73.80;;;;;;6179554;23;20052;-95
2022/04/09 11:03:08;;;;;;;4.85;0.95;;;10.60;72.10;;;;;;6206013;23;20047;-95
2022/04/09 11:06:16;;;;;;;3.95;0.75;;;10.40;71.30;;;;;;6178889;23;20012;-96
2022/04/09 11:09:00;;;;;;;3.33;1.00;;;10.30;69.90;;;;;;6204432;23;20017;-96
2022/04/09 11:11:31;;;;;;;3.65;0.88;;;10.30;68.80;;;;;;6207486;23;20044;-94
2022/04/09 11:13:58;;;;;;;4.88;1.05;;;10.40;68.90;;;;;;6208230;23;20032;-95
2022/04/09 11:16:32;;;;;;;7.65;0.90;;;10.40;68.80;;;;;;6211183;23;20012;-94
2022/04/09 11:19:00;;;;;;;5.55;1.30;;;10.40;69.00;;;;;;6211962;23;20024;-95
2022/04/09 11:21:27;;;;;;;2.00;0.60;;;10.50;69.30;;;;;;6207910;23;19997;-95
2022/04/09 11:24:07;;;;;;;1.50;0.80;;;10.50;69.20;;;;;;6205023;23;20076;-95
2022/04/09 11:26:33;;;;;;;4.75;1.00;;;10.60;69.40;;;;;;6202149;23;20005;-95
2022/04/09 11:29:11;;;;;;;3.15;0.85;;;10.70;69.20;;;;;;6207985;23;20016;-96
2022/04/09 11:31:47;;;;;;;4.43;0.95;;;10.70;68.50;;;;;;6205528;23;20025;-96
2022/04/09 11:34:13;;;;;;;7.88;1.35;;;10.60;69.00;;;;;;6207827;23;20001;-96
2022/04/09 11:36:45;;;;;;;8.13;1.70;;;10.50;69.30;;;;;;6206396;23;20024;-95
2022/04/09 11:39:11;;;;;;;5.30;1.40;;;10.60;70.00;;;;;;6204339;23;20008;-94
2022/04/09 11:41:37;;;;;;;4.65;1.10;;;10.60;70.20;;;;;;6201420;23;20008;-95
2022/04/09 11:44:03;;;;;;;4.25;1.17;;;10.60;70.30;;;;;;6202410;23;20025;-95
2022/04/09 11:46:41;;;;;;;4.22;1.40;;;10.60;70.60;;;;;;6201741;23;20092;-95
2022/04/09 11:49:10;;;;;;;5.05;1.08;;;10.50;70.40;;;;;;6205689;23;20013;-96
2022/04/09 11:51:36;;;;;;;3.85;1.10;;;10.40;70.30;;;;;;6205055;23;20001;-95
2022/04/09 11:54:18;;;;;;;3.60;0.93;;;10.20;70.60;;;;;;6207292;23;19993;-96
2022/04/09 11:56:44;;;;;;;6.97;1.33;;;10.10;70.60;;;;;;6203451;23;20086;-96
2022/04/09 11:59:13;;;;;;;6.80;1.10;;;10.10;71.00;;;;;;6207661;23;20048;-94
2022/04/09 12:01:44;;;;;;;6.10;0.90;;;10.00;71.30;;;;;;6207161;23;20069;-96
2022/04/09 12:04:10;;;;;;;2.13;0.90;;;10.00;71.50;;;;;;6209528;23;19997;-96
2022/04/09 12:06:37;;;;;;;4.63;1.10;;;9.90;71.80;;;;;;6207305;23;20000;-94
2022/04/09 12:09:07;;;;;;;4.88;1.40;;;9.90;72.10;;;;;;6208126;23;20012;-96
2022/04/09 12:11:39;;;;;;;3.72;0.77;;;10.00;72.50;;;;;;6181943;23;20080;-95
2022/04/09 12:14:16;;;;;;;6.38;2.35;;;10.20;72.30;;;;;;6206940;22;20008;-96
2022/04/09 12:16:43;;;;;;;4.80;1.17;;;10.20;71.80;;;;;;6210077;23;20036;-94
2022/04/09 12:19:09;;;;;;;3.25;1.00;;;10.20;72.10;;;;;;6239348;23;20039;-95
2022/04/09 12:21:38;;;;;;;7.75;1.10;;;10.20;72.50;;;;;;6214890;23;20012;-94
2022/04/09 12:24:15;;;;;;;2.20;0.75;;;10.10;72.40;;;;;;6212995;23;20001;-94
2022/04/09 12:26:43;;;;;;;8.57;1.15;;;10.30;71.90;;;;;;6236784;23;20028;-95
2022/04/09 12:29:14;;;;;;;3.30;1.20;;;10.60;71.90;;;;;;6211084;23;20001;-95
2022/04/09 12:31:51;;;;;;;4.43;1.02;;;10.90;70.50;;;;;;6211154;23;20016;-96
2022/04/09 12:34:20;;;;;;;6.15;1.30;;;11.30;70.80;;;;;;6210488;23;20443;-95
2022/04/09 12:37:06;;;;;;;2.00;0.57;;;11.60;70.60;;;;;;6236145;23;20020;-96
2022/04/09 12:39:37;;;;;;;2.17;0.55;;;11.90;69.30;;;;;;6237089;23;19985;-95
2022/04/09 12:42:04;;;;;;;2.63;0.95;;;12.00;68.00;;;;;;6209165;23;20005;-94
2022/04/09 12:44:35;;;;;;;3.95;0.95;;;12.20;68.20;;;;;;6234670;23;19992;-95
2022/04/09 12:47:02;;;;;;;6.00;1.00;;;12.30;65.50;;;;;;6234548;23;20005;-96
2022/04/09 12:49:41;;;;;;;3.55;1.00;;;12.40;66.00;;;;;;6232129;23;20005;-95
2022/04/09 12:52:09;;;;;;;3.47;1.30;;;12.50;64.90;;;;;;6209904;23;20077;-94
2022/04/09 12:54:35;;;;;;;6.40;0.90;;;12.60;65.40;;;;;;6207846;23;20024;-95
2022/04/09 12:57:09;;;;;;;2.42;0.63;;;12.80;65.70;;;;;;6205484;23;20000;-95
2022/04/09 12:59:35;;;;;;;3.13;0.60;;;13.10;65.40;;;;;;6234182;23;20030;-94
2022/04/09 13:02:05;;;;;;;4.38;0.80;;;13.40;65.20;;;;;;6243185;23;20031;-94